Time;durP1;ratioP1;P1;durP2;ratioP2;P2;SDS_P1;SDS_P2;PMS_P1;PMS_P2;Temp;Humidity;BMP_temperature;BMP_pressure;BME280_temperature;BME280_humidity;BME280_pressure;Samples;Min_cycle;Max_cycle;Signal;HPM_P1;HPM_P2
2023/06/06 00:01:19;;;;;;;5.10;4.75;;;;;;;;;;6281937;22;20022;-90
2023/06/06 00:03:46;;;;;;;6.22;4.95;;;;;;;;;;6281561;22;20054;-89
2023/06/06 00:06:20;;;;;;;5.30;4.85;;;;;;;;;;6307835;22;20022;-89
2023/06/06 00:08:50;;;;;;;5.45;5.00;;;;;;;;;;6281796;22;20102;-89
2023/06/06 00:11:16;;;;;;;5.45;4.97;;;;;;;;;;6281480;22;20023;-89
2023/06/06 00:13:42;;;;;;;5.68;5.18;;;;;;;;;;6307702;22;20042;-89
2023/06/06 00:16:09;;;;;;;8.48;5.07;;;;;;;;;;6307392;22;20055;-89
2023/06/06 00:18:36;;;;;;;5.32;4.93;;;;;;;;;;6280328;22;20137;-88
2023/06/06 00:21:02;;;;;;;4.90;4.57;;;;;;;;;;6283300;22;20019;-89
2023/06/06 00:23:30;;;;;;;6.22;4.75;;;;;;;;;;6314502;22;20452;-89
2023/06/06 00:25:56;;;;;;;7.47;4.78;;;;;;;;;;6257422;22;20022;-89
2023/06/06 00:28:22;;;;;;;7.57;5.07;;;;;;;;;;6282015;22;20015;-88
2023/06/06 00:30:49;;;;;;;5.68;5.10;;;;;;;;;;6281382;22;20015;-89
2023/06/06 00:33:15;;;;;;;8.18;4.68;;;;;;;;;;6256325;22;20015;-89
2023/06/06 00:35:42;;;;;;;5.50;5.00;;;;;;;;;;6282142;22;20384;-89
2023/06/06 00:38:08;;;;;;;6.03;5.53;;;;;;;;;;6283582;22;20019;-89
2023/06/06 00:40:34;;;;;;;5.38;4.88;;;;;;;;;;6309829;22;20019;-88
2023/06/06 00:43:00;;;;;;;5.25;4.72;;;;;;;;;;6319298;22;20038;-89
2023/06/06 00:45:26;;;;;;;6.50;5.90;;;;;;;;;;6308089;22;20000;-89
2023/06/06 00:47:52;;;;;;;6.22;5.65;;;;;;;;;;6301626;22;20019;-89
2023/06/06 00:50:21;;;;;;;6.43;5.82;;;;;;;;;;6259261;22;20015;-89
2023/06/06 00:52:49;;;;;;;5.97;5.38;;;;;;;;;;6310458;22;20096;-89
2023/06/06 00:55:16;;;;;;;6.47;5.88;;;;;;;;;;6282440;22;20050;-89
2023/06/06 00:57:43;;;;;;;7.15;6.55;;;;;;;;;;6308159;22;20029;-88
2023/06/06 01:00:13;;;;;;;7.00;5.97;;;;;;;;;;6309052;22;20514;-89
2023/06/06 01:02:43;;;;;;;7.80;5.97;;;;;;;;;;6258570;22;20015;-89
2023/06/06 01:05:10;;;;;;;6.55;5.95;;;;;;;;;;6284093;22;20067;-89
2023/06/06 01:07:39;;;;;;;6.53;6.00;;;;;;;;;;6282938;22;20120;-89
2023/06/06 01:10:09;;;;;;;6.97;6.38;;;;;;;;;;6309101;22;20018;-89
2023/06/06 01:12:55;;;;;;;6.55;5.88;;;;;;;;;;6308829;22;20026;-89
2023/06/06 01:15:38;;;;;;;6.60;5.93;;;;;;;;;;6308330;22;20058;-89
2023/06/06 01:18:05;;;;;;;7.72;6.30;;;;;;;;;;6308930;22;20047;-89
2023/06/06 01:20:34;;;;;;;7.43;6.15;;;;;;;;;;6281653;22;20099;-89
2023/06/06 01:23:00;;;;;;;7.85;6.00;;;;;;;;;;6257847;22;20019;-88
2023/06/06 01:25:34;;;;;;;6.40;5.85;;;;;;;;;;6283405;22;20314;-88
2023/06/06 01:28:00;;;;;;;6.63;5.85;;;;;;;;;;6283958;22;20015;-89
2023/06/06 01:30:28;;;;;;;7.10;5.47;;;;;;;;;;6283056;22;20019;-89
2023/06/06 01:32:54;;;;;;;9.45;7.07;;;;;;;;;;6308571;22;20054;-89
2023/06/06 01:35:23;;;;;;;6.68;5.63;;;;;;;;;;6282718;22;20023;-89
2023/06/06 01:38:00;;;;;;;6.68;6.03;;;;;;;;;;6308862;22;20418;-89
2023/06/06 01:40:27;;;;;;;7.30;5.90;;;;;;;;;;6308807;22;20011;-89
2023/06/06 01:42:57;;;;;;;7.10;5.95;;;;;;;;;;6282965;22;20446;-90
2023/06/06 01:45:25;;;;;;;8.40;6.00;;;;;;;;;;6307516;22;20019;-90
2023/06/06 01:47:55;;;;;;;8.13;6.50;;;;;;;;;;6308284;22;20015;-89
2023/06/06 01:50:22;;;;;;;8.05;6.00;;;;;;;;;;6281568;22;20015;-90
2023/06/06 01:52:48;;;;;;;6.97;5.85;;;;;;;;;;6257579;22;20016;-90
2023/06/06 01:55:14;;;;;;;6.75;5.82;;;;;;;;;;6283301;22;20011;-90
2023/06/06 01:57:40;;;;;;;7.07;6.18;;;;;;;;;;6282945;22;20098;-90
2023/06/06 02:00:08;;;;;;;6.82;6.22;;;;;;;;;;6309244;22;20019;-90
2023/06/06 02:02:36;;;;;;;10.20;6.88;;;;;;;;;;6257697;22;20019;-90
2023/06/06 02:05:03;;;;;;;10.43;6.35;;;;;;;;;;6282565;22;20019;-89
2023/06/06 02:07:34;;;;;;;7.80;5.97;;;;;;;;;;6308295;22;20015;-90
2023/06/06 02:10:01;;;;;;;6.63;5.95;;;;;;;;;;6308986;22;20027;-90
2023/06/06 02:12:27;;;;;;;7.55;6.15;;;;;;;;;;6308177;22;20061;-89
2023/06/06 02:14:54;;;;;;;9.18;6.30;;;;;;;;;;6257145;22;20034;-89
2023/06/06 02:17:21;;;;;;;8.57;7.10;;;;;;;;;;6307725;22;20019;-89
2023/06/06 02:19:47;;;;;;;6.72;6.05;;;;;;;;;;6306984;22;20018;-88
2023/06/06 02:22:13;;;;;;;9.43;7.15;;;;;;;;;;6257010;22;20016;-89
2023/06/06 02:24:43;;;;;;;8.15;6.75;;;;;;;;;;6308350;22;20015;-90
2023/06/06 02:27:09;;;;;;;8.10;7.30;;;;;;;;;;6308243;22;20421;-89
2023/06/06 02:29:37;;;;;;;7.68;6.65;;;;;;;;;;6308393;22;20022;-89
2023/06/06 02:32:03;;;;;;;7.07;6.40;;;;;;;;;;6308223;22;20499;-90
2023/06/06 02:34:32;;;;;;;10.98;7.63;;;;;;;;;;6282623;22;20019;-89
2023/06/06 02:37:02;;;;;;;10.75;6.95;;;;;;;;;;6307994;22;20026;-90
2023/06/06 02:39:28;;;;;;;9.00;7.70;;;;;;;;;;6282995;22;20068;-90
2023/06/06 02:41:57;;;;;;;9.77;7.85;;;;;;;;;;6308500;22;20015;-90
2023/06/06 02:44:23;;;;;;;10.07;7.90;;;;;;;;;;6282353;22;20026;-90
2023/06/06 02:46:49;;;;;;;9.50;8.13;;;;;;;;;;6307982;22;20493;-90
2023/06/06 02:49:17;;;;;;;9.38;8.48;;;;;;;;;;6307697;22;20050;-90
2023/06/06 02:51:43;;;;;;;11.00;8.32;;;;;;;;;;6308274;22;20429;-89
2023/06/06 02:54:12;;;;;;;9.35;8.32;;;;;;;;;;6256873;22;20024;-90
2023/06/06 02:56:38;;;;;;;12.20;9.98;;;;;;;;;;6308373;22;20450;-89
2023/06/06 02:59:07;;;;;;;10.70;9.55;;;;;;;;;;6307945;22;20012;-89
2023/06/06 03:01:33;;;;;;;10.20;9.18;;;;;;;;;;6307789;22;20011;-89
2023/06/06 03:04:00;;;;;;;10.85;8.88;;;;;;;;;;6257345;22;20019;-89
2023/06/06 03:06:28;;;;;;;11.23;9.40;;;;;;;;;;6309900;22;20081;-88
2023/06/06 03:08:57;;;;;;;11.13;9.40;;;;;;;;;;6286578;22;20012;-89
2023/06/06 03:11:25;;;;;;;10.93;9.82;;;;;;;;;;6311070;22;20019;-89
2023/06/06 03:13:51;;;;;;;11.52;10.10;;;;;;;;;;6282514;22;20034;-90
2023/06/06 03:16:17;;;;;;;12.20;10.18;;;;;;;;;;6282022;22;20015;-89
2023/06/06 03:18:46;;;;;;;11.23;10.15;;;;;;;;;;6256112;22;20016;-87
2023/06/06 03:21:14;;;;;;;11.23;10.07;;;;;;;;;;6257461;22;20026;-90
2023/06/06 03:23:43;;;;;;;12.63;11.27;;;;;;;;;;6308233;22;20113;-89
2023/06/06 03:26:14;;;;;;;15.68;10.90;;;;;;;;;;6281934;22;20338;-89
2023/06/06 03:28:40;;;;;;;11.48;10.25;;;;;;;;;;6308402;22;20429;-89
2023/06/06 03:31:11;;;;;;;11.50;10.35;;;;;;;;;;6307478;22;20019;-89
2023/06/06 03:33:37;;;;;;;11.32;10.13;;;;;;;;;;6281966;22;20051;-90
2023/06/06 03:36:06;;;;;;;13.95;10.80;;;;;;;;;;6256428;22;20016;-89
2023/06/06 03:38:32;;;;;;;13.70;10.40;;;;;;;;;;6282539;22;20508;-90
2023/06/06 03:40:58;;;;;;;15.63;11.23;;;;;;;;;;6257038;22;20069;-90
2023/06/06 03:43:24;;;;;;;12.93;9.80;;;;;;;;;;6282446;22;20026;-90
2023/06/06 03:45:50;;;;;;;15.23;10.95;;;;;;;;;;6281959;22;20019;-90
2023/06/06 03:48:17;;;;;;;12.32;11.02;;;;;;;;;;6307770;22;20307;-89
2023/06/06 03:50:43;;;;;;;14.40;9.82;;;;;;;;;;6306996;22;20113;-89
2023/06/06 03:53:09;;;;;;;12.85;9.75;;;;;;;;;;6281872;22;20098;-90
2023/06/06 03:55:37;;;;;;;12.73;9.50;;;;;;;;;;6281963;22;20072;-90
2023/06/06 03:58:03;;;;;;;9.68;8.13;;;;;;;;;;6281822;22;20098;-90
2023/06/06 04:00:29;;;;;;;11.13;9.15;;;;;;;;;;6282984;22;20025;-90
2023/06/06 04:02:55;;;;;;;10.13;8.70;;;;;;;;;;6281962;22;20444;-90
2023/06/06 04:05:21;;;;;;;13.65;9.27;;;;;;;;;;6281803;22;20015;-89
2023/06/06 04:07:47;;;;;;;10.30;9.27;;;;;;;;;;6306529;22;20022;-90
2023/06/06 04:10:14;;;;;;;11.70;8.88;;;;;;;;;;6282083;22;20532;-89
2023/06/06 04:12:40;;;;;;;14.15;8.98;;;;;;;;;;6307195;22;20011;-90
2023/06/06 04:15:07;;;;;;;12.20;9.05;;;;;;;;;;6307469;22;20073;-90
2023/06/06 04:17:33;;;;;;;9.32;8.15;;;;;;;;;;6307633;22;20071;-91
2023/06/06 04:20:00;;;;;;;13.10;8.45;;;;;;;;;;6280401;22;20016;-91
2023/06/06 04:22:27;;;;;;;10.13;7.63;;;;;;;;;;6282894;22;20073;-91
2023/06/06 04:24:53;;;;;;;7.95;6.95;;;;;;;;;;6308264;22;20019;-90
2023/06/06 04:27:19;;;;;;;11.88;7.63;;;;;;;;;;6257184;22;20050;-91
2023/06/06 04:29:50;;;;;;;11.00;7.53;;;;;;;;;;6282446;22;20019;-90
2023/06/06 04:32:20;;;;;;;11.90;7.63;;;;;;;;;;6258826;22;20020;-90
2023/06/06 04:34:46;;;;;;;12.13;7.82;;;;;;;;;;6257371;22;20019;-88
2023/06/06 04:37:14;;;;;;;9.90;6.88;;;;;;;;;;6281537;22;20099;-91
2023/06/06 04:39:41;;;;;;;12.80;7.32;;;;;;;;;;6308292;22;20020;-90
2023/06/06 04:42:07;;;;;;;11.57;7.22;;;;;;;;;;6283280;22;20030;-91
2023/06/06 04:44:34;;;;;;;13.82;7.63;;;;;;;;;;6283541;22;20019;-90
2023/06/06 04:47:01;;;;;;;11.73;7.03;;;;;;;;;;6282141;22;20018;-91
2023/06/06 04:49:37;;;;;;;10.30;7.18;;;;;;;;;;6307769;22;20016;-90
2023/06/06 04:52:05;;;;;;;11.07;7.13;;;;;;;;;;6307709;22;20035;-91
2023/06/06 04:54:32;;;;;;;11.15;6.97;;;;;;;;;;6282368;22;20015;-90
2023/06/06 04:56:58;;;;;;;14.75;7.68;;;;;;;;;;6307762;22;20019;-92
2023/06/06 04:59:27;;;;;;;9.80;6.70;;;;;;;;;;6307322;22;20019;-90
2023/06/06 05:01:56;;;;;;;11.77;7.47;;;;;;;;;;6256551;22;20015;-90
2023/06/06 05:04:25;;;;;;;9.20;6.53;;;;;;;;;;6281408;22;20455;-90
2023/06/06 05:06:54;;;;;;;9.88;6.70;;;;;;;;;;6281778;22;20051;-90
2023/06/06 05:09:23;;;;;;;9.65;6.85;;;;;;;;;;6308670;22;20062;-91
2023/06/06 05:11:52;;;;;;;9.98;6.47;;;;;;;;;;6281999;22;20023;-91
2023/06/06 05:14:23;;;;;;;9.13;6.80;;;;;;;;;;6308130;22;20015;-90
2023/06/06 05:16:53;;;;;;;12.20;6.72;;;;;;;;;;6308474;22;20108;-89
2023/06/06 05:19:20;;;;;;;8.75;6.80;;;;;;;;;;6307250;22;20022;-89
2023/06/06 05:21:47;;;;;;;10.77;6.38;;;;;;;;;;6307688;22;20086;-91
2023/06/06 05:24:15;;;;;;;9.80;6.70;;;;;;;;;;6281865;22;20015;-91
2023/06/06 05:26:42;;;;;;;7.60;6.93;;;;;;;;;;6307102;22;20042;-91
2023/06/06 05:29:10;;;;;;;8.55;6.15;;;;;;;;;;6307027;22;20095;-90
2023/06/06 05:31:37;;;;;;;10.93;6.53;;;;;;;;;;6307277;22;20095;-91
2023/06/06 05:34:03;;;;;;;9.20;6.32;;;;;;;;;;6308223;22;20034;-91
2023/06/06 05:36:30;;;;;;;9.30;6.72;;;;;;;;;;6281908;22;20015;-91
2023/06/06 05:38:56;;;;;;;10.00;6.70;;;;;;;;;;6282059;22;20015;-91
2023/06/06 05:41:22;;;;;;;10.63;6.10;;;;;;;;;;6258252;22;20019;-92
2023/06/06 05:43:50;;;;;;;9.38;5.55;;;;;;;;;;6312132;22;20011;-91
2023/06/06 05:46:16;;;;;;;9.55;5.38;;;;;;;;;;6287909;22;20011;-92
2023/06/06 05:48:42;;;;;;;7.57;5.47;;;;;;;;;;6295623;22;20019;-91
2023/06/06 05:51:08;;;;;;;9.30;5.82;;;;;;;;;;6296295;22;20019;-91
2023/06/06 05:53:34;;;;;;;7.13;5.75;;;;;;;;;;6323438;22;20015;-92
2023/06/06 05:56:01;;;;;;;6.55;5.90;;;;;;;;;;6313373;22;20054;-92
2023/06/06 05:58:27;;;;;;;11.55;5.63;;;;;;;;;;6285564;22;20015;-93
2023/06/06 06:00:53;;;;;;;9.23;5.72;;;;;;;;;;6283523;22;20062;-92
2023/06/06 06:03:21;;;;;;;7.40;5.07;;;;;;;;;;6308786;22;20015;-93
2023/06/06 06:05:47;;;;;;;8.23;5.32;;;;;;;;;;6309465;22;20011;-92
2023/06/06 06:08:14;;;;;;;8.70;5.40;;;;;;;;;;6284110;22;20026;-93
2023/06/06 06:10:40;;;;;;;7.63;5.43;;;;;;;;;;6283905;22;20011;-94
2023/06/06 06:13:06;;;;;;;11.43;5.10;;;;;;;;;;6284176;22;20051;-94
2023/06/06 06:15:36;;;;;;;10.63;5.65;;;;;;;;;;6309605;22;20023;-93
2023/06/06 06:18:03;;;;;;;8.00;3.97;;;;;;;;;;6309746;22;20022;-93
2023/06/06 06:20:29;;;;;;;9.73;5.10;;;;;;;;;;6282999;22;20073;-93
2023/06/06 06:22:55;;;;;;;8.02;4.85;;;;;;;;;;6258160;22;20019;-93
2023/06/06 06:25:22;;;;;;;11.10;5.20;;;;;;;;;;6257822;22;20026;-92
2023/06/06 06:27:48;;;;;;;10.88;5.30;;;;;;;;;;6283577;22;20054;-92
2023/06/06 06:30:15;;;;;;;9.80;5.57;;;;;;;;;;6282906;22;20022;-92
2023/06/06 06:32:42;;;;;;;5.43;4.40;;;;;;;;;;6258575;22;20023;-92
2023/06/06 06:35:08;;;;;;;11.02;5.32;;;;;;;;;;6309567;22;20049;-92
2023/06/06 06:37:37;;;;;;;9.65;4.45;;;;;;;;;;6283096;22;20072;-92
2023/06/06 06:40:17;;;;;;;7.18;4.43;;;;;;;;;;6309584;22;20019;-92
2023/06/06 06:42:44;;;;;;;7.97;3.83;;;;;;;;;;6309005;22;20015;-92
2023/06/06 06:45:12;;;;;;;11.90;4.05;;;;;;;;;;6309550;22;20018;-91
2023/06/06 06:47:38;;;;;;;6.03;3.65;;;;;;;;;;6283293;22;20068;-90
2023/06/06 06:50:04;;;;;;;10.38;4.22;;;;;;;;;;6257696;22;20314;-92
2023/06/06 06:52:35;;;;;;;6.53;4.28;;;;;;;;;;6310528;22;20558;-93
2023/06/06 06:55:01;;;;;;;10.60;3.95;;;;;;;;;;6308402;22;20019;-92
2023/06/06 06:57:38;;;;;;;7.03;3.92;;;;;;;;;;6284159;22;20076;-92
2023/06/06 07:00:23;;;;;;;9.30;4.43;;;;;;;;;;6308314;22;20012;-92
2023/06/06 07:02:50;;;;;;;7.10;4.03;;;;;;;;;;6308249;22;20070;-91
2023/06/06 07:05:17;;;;;;;6.70;3.90;;;;;;;;;;6309007;22;20457;-93
2023/06/06 07:07:44;;;;;;;6.93;3.80;;;;;;;;;;6310178;22;20015;-92
2023/06/06 07:10:10;;;;;;;9.93;3.75;;;;;;;;;;6258922;22;20341;-92
2023/06/06 07:12:36;;;;;;;7.40;4.05;;;;;;;;;;6283314;22;20050;-92
2023/06/06 07:15:03;;;;;;;8.93;4.07;;;;;;;;;;6309435;22;20015;-92
2023/06/06 07:17:29;;;;;;;6.30;3.63;;;;;;;;;;6310162;22;20012;-92
2023/06/06 07:19:56;;;;;;;6.43;3.38;;;;;;;;;;6281728;22;20019;-92
2023/06/06 07:22:24;;;;;;;7.72;3.30;;;;;;;;;;6284267;22;20015;-93
2023/06/06 07:24:53;;;;;;;6.50;3.28;;;;;;;;;;6259073;22;20053;-92
2023/06/06 07:27:19;;;;;;;7.18;3.97;;;;;;;;;;6283782;22;20015;-92
2023/06/06 07:29:45;;;;;;;6.53;4.10;;;;;;;;;;6282439;22;20128;-93
2023/06/06 07:32:12;;;;;;;7.80;3.70;;;;;;;;;;6283472;22;20011;-92
2023/06/06 07:34:38;;;;;;;7.40;3.67;;;;;;;;;;6282802;22;20384;-92
2023/06/06 07:37:07;;;;;;;4.95;3.35;;;;;;;;;;6309510;22;20019;-91
2023/06/06 07:39:35;;;;;;;8.05;4.50;;;;;;;;;;6282601;22;20384;-91
2023/06/06 07:42:02;;;;;;;6.38;3.60;;;;;;;;;;6283008;22;20518;-93
2023/06/06 07:44:28;;;;;;;7.50;4.10;;;;;;;;;;6309038;22;20098;-92
2023/06/06 07:46:54;;;;;;;5.68;4.63;;;;;;;;;;6282952;22;20399;-93
2023/06/06 07:49:20;;;;;;;7.80;4.93;;;;;;;;;;6282269;22;20094;-93
2023/06/06 07:51:47;;;;;;;7.93;5.65;;;;;;;;;;6283045;22;20094;-92
2023/06/06 07:54:14;;;;;;;6.53;5.70;;;;;;;;;;6282499;22;20107;-92
2023/06/06 07:56:40;;;;;;;8.50;5.72;;;;;;;;;;6283469;22;20015;-93
2023/06/06 07:59:09;;;;;;;8.63;5.50;;;;;;;;;;6256927;22;20015;-92
2023/06/06 08:01:36;;;;;;;9.80;6.47;;;;;;;;;;6308228;22;20054;-92
2023/06/06 08:04:04;;;;;;;6.88;5.43;;;;;;;;;;6308274;22;20072;-92
2023/06/06 08:06:33;;;;;;;9.18;6.18;;;;;;;;;;6282239;22;20011;-92
2023/06/06 08:08:59;;;;;;;11.63;6.70;;;;;;;;;;6282362;22;20051;-91
2023/06/06 08:11:25;;;;;;;13.65;8.10;;;;;;;;;;6307953;22;20027;-91
2023/06/06 08:13:51;;;;;;;8.20;7.53;;;;;;;;;;6282726;22;20030;-93
2023/06/06 08:16:18;;;;;;;11.10;7.18;;;;;;;;;;6307469;22;20098;-91
2023/06/06 08:18:44;;;;;;;10.23;6.80;;;;;;;;;;6307000;22;20023;-94
2023/06/06 08:21:17;;;;;;;5.40;4.80;;;;;;;;;;6306910;22;20016;-91
2023/06/06 08:23:51;;;;;;;8.17;5.53;;;;;;;;;;6307713;22;20019;-91
2023/06/06 08:26:24;;;;;;;7.43;5.50;;;;;;;;;;6281985;22;20064;-89
2023/06/06 08:28:50;;;;;;;6.68;4.95;;;;;;;;;;6307603;22;20389;-91
2023/06/06 08:31:17;;;;;;;8.23;5.13;;;;;;;;;;6280892;22;20026;-90
2023/06/06 08:33:43;;;;;;;7.63;4.40;;;;;;;;;;6281857;22;20021;-91
2023/06/06 08:36:12;;;;;;;6.45;4.15;;;;;;;;;;6314564;22;20007;-91
2023/06/06 08:38:38;;;;;;;5.45;3.72;;;;;;;;;;6265290;22;20102;-91
2023/06/06 08:41:05;;;;;;;8.73;4.40;;;;;;;;;;6282549;22;20019;-93
2023/06/06 08:43:36;;;;;;;6.10;3.95;;;;;;;;;;6283096;22;20051;-91
2023/06/06 08:46:03;;;;;;;7.50;4.15;;;;;;;;;;6308290;22;20332;-90
2023/06/06 08:48:29;;;;;;;5.30;3.92;;;;;;;;;;6308182;22;20018;-91
2023/06/06 08:51:00;;;;;;;8.73;4.05;;;;;;;;;;6307369;22;20019;-92
2023/06/06 08:53:26;;;;;;;6.38;4.20;;;;;;;;;;6281584;22;20341;-91
2023/06/06 08:55:56;;;;;;;6.40;4.32;;;;;;;;;;6307707;22;20431;-91
2023/06/06 08:58:23;;;;;;;6.75;3.72;;;;;;;;;;6281938;22;20090;-92
2023/06/06 09:00:49;;;;;;;6.47;3.80;;;;;;;;;;6281197;22;20054;-91
2023/06/06 09:03:17;;;;;;;6.20;3.67;;;;;;;;;;6282312;22;20019;-92
2023/06/06 09:05:44;;;;;;;6.68;3.40;;;;;;;;;;6307515;22;20376;-92
2023/06/06 09:08:10;;;;;;;5.45;3.50;;;;;;;;;;6282172;22;20491;-91
2023/06/06 09:10:36;;;;;;;5.18;3.58;;;;;;;;;;6307073;22;20011;-91
2023/06/06 09:13:02;;;;;;;5.90;3.40;;;;;;;;;;6306857;22;20036;-90
2023/06/06 09:15:29;;;;;;;3.72;3.40;;;;;;;;;;6281264;22;20022;-90
2023/06/06 09:17:55;;;;;;;6.88;3.80;;;;;;;;;;6307332;22;20045;-92
2023/06/06 09:20:25;;;;;;;5.60;4.10;;;;;;;;;;6282810;22;20513;-92
2023/06/06 09:22:57;;;;;;;5.57;3.20;;;;;;;;;;6309813;22;20404;-95
2023/06/06 09:25:27;;;;;;;4.85;3.17;;;;;;;;;;6282112;22;20038;-90
2023/06/06 09:27:59;;;;;;;5.75;3.00;;;;;;;;;;6282596;22;20106;-92
2023/06/06 09:30:26;;;;;;;4.53;2.40;;;;;;;;;;6308549;22;20518;-90
2023/06/06 09:32:53;;;;;;;5.18;2.72;;;;;;;;;;6282982;22;20453;-90
2023/06/06 09:35:19;;;;;;;3.50;2.30;;;;;;;;;;6282959;22;20019;-92
2023/06/06 09:37:46;;;;;;;2.80;2.35;;;;;;;;;;6284019;22;20020;-92
2023/06/06 09:40:13;;;;;;;6.25;3.17;;;;;;;;;;6283112;22;20019;-91
2023/06/06 09:42:42;;;;;;;5.30;2.63;;;;;;;;;;6308769;22;20011;-89
2023/06/06 09:45:18;;;;;;;6.05;2.50;;;;;;;;;;6283133;22;20023;-90
2023/06/06 09:47:46;;;;;;;3.85;2.67;;;;;;;;;;6282578;22;20391;-89
2023/06/06 09:50:13;;;;;;;5.45;2.55;;;;;;;;;;6307707;22;20073;-89
2023/06/06 09:52:40;;;;;;;5.13;2.85;;;;;;;;;;6308076;22;20514;-90
2023/06/06 09:55:09;;;;;;;5.88;2.45;;;;;;;;;;6282546;22;20019;-88
2023/06/06 09:57:36;;;;;;;7.20;2.72;;;;;;;;;;6308258;22;20045;-90
2023/06/06 10:00:12;;;;;;;4.63;2.70;;;;;;;;;;6282497;22;20024;-89
2023/06/06 10:02:43;;;;;;;5.40;2.92;;;;;;;;;;6282406;22;20350;-88
2023/06/06 10:05:11;;;;;;;4.75;2.80;;;;;;;;;;6282159;22;20025;-88
2023/06/06 10:07:44;;;;;;;3.70;2.17;;;;;;;;;;6283381;22;20466;-90
2023/06/06 10:10:15;;;;;;;4.70;2.38;;;;;;;;;;6282622;22;20019;-89
2023/06/06 10:12:43;;;;;;;5.20;2.58;;;;;;;;;;6282054;22;20461;-90
2023/06/06 10:15:10;;;;;;;4.10;2.33;;;;;;;;;;6282993;22;20366;-91
2023/06/06 10:17:37;;;;;;;4.53;2.50;;;;;;;;;;6282998;22;20023;-91
2023/06/06 10:20:06;;;;;;;3.63;3.00;;;;;;;;;;6281679;22;20023;-90
2023/06/06 10:22:40;;;;;;;3.15;2.47;;;;;;;;;;6282576;22;20046;-90
2023/06/06 10:25:13;;;;;;;3.90;1.80;;;;;;;;;;6281975;22;20560;-92
2023/06/06 10:27:42;;;;;;;3.83;2.45;;;;;;;;;;6309234;22;20242;-91
2023/06/06 10:30:08;;;;;;;4.20;2.50;;;;;;;;;;6307443;22;20019;-93
2023/06/06 10:32:43;;;;;;;4.78;1.63;;;;;;;;;;6307846;22;20473;-91
2023/06/06 10:35:11;;;;;;;3.67;2.50;;;;;;;;;;6282487;22;20015;-92
2023/06/06 10:37:38;;;;;;;5.30;2.88;;;;;;;;;;6307682;22;20015;-90
2023/06/06 10:40:05;;;;;;;4.00;2.15;;;;;;;;;;6282585;22;20016;-91
2023/06/06 10:42:35;;;;;;;4.07;2.30;;;;;;;;;;6308091;22;20015;-94
2023/06/06 10:45:01;;;;;;;4.05;2.17;;;;;;;;;;6282603;22;20023;-89
2023/06/06 10:47:35;;;;;;;4.72;2.65;;;;;;;;;;6309142;22;20051;-92
2023/06/06 10:50:11;;;;;;;5.38;2.53;;;;;;;;;;6310645;22;20453;-92
2023/06/06 10:52:47;;;;;;;4.28;2.28;;;;;;;;;;6312990;22;20468;-90
2023/06/06 10:55:19;;;;;;;4.38;2.35;;;;;;;;;;6306795;22;20042;-93
2023/06/06 10:58:05;;;;;;;2.65;2.05;;;;;;;;;;6331106;22;20018;-92
2023/06/06 11:00:35;;;;;;;2.90;2.22;;;;;;;;;;6293849;22;20102;-94
2023/06/06 11:03:05;;;;;;;3.47;2.35;;;;;;;;;;6298084;22;20019;-91
2023/06/06 11:05:34;;;;;;;4.55;1.95;;;;;;;;;;6319005;22;20027;-91
2023/06/06 11:08:01;;;;;;;4.40;2.53;;;;;;;;;;6313164;22;20015;-94
2023/06/06 11:10:27;;;;;;;4.18;2.50;;;;;;;;;;6258406;22;20323;-91
2023/06/06 11:12:54;;;;;;;3.13;2.10;;;;;;;;;;6282656;22;20026;-92
2023/06/06 11:15:32;;;;;;;4.20;2.50;;;;;;;;;;6285468;22;20042;-93
2023/06/06 11:18:04;;;;;;;4.35;1.75;;;;;;;;;;6313736;22;20329;-93
2023/06/06 11:20:39;;;;;;;5.15;2.17;;;;;;;;;;6312749;22;20438;-92
2023/06/06 11:23:05;;;;;;;5.15;2.67;;;;;;;;;;6313123;22;20337;-94
2023/06/06 11:25:35;;;;;;;4.00;2.00;;;;;;;;;;6287314;22;20103;-93
2023/06/06 11:28:04;;;;;;;3.55;2.20;;;;;;;;;;6291930;22;20022;-94
2023/06/06 11:30:34;;;;;;;4.07;2.25;;;;;;;;;;6289245;22;20034;-93
2023/06/06 11:33:01;;;;;;;5.90;2.55;;;;;;;;;;6284797;22;20026;-95
2023/06/06 11:35:34;;;;;;;4.88;2.58;;;;;;;;;;6284770;22;20015;-96
2023/06/06 11:38:00;;;;;;;4.43;2.50;;;;;;;;;;6310311;22;20441;-95
2023/06/06 11:40:26;;;;;;;4.30;2.72;;;;;;;;;;6259359;22;20345;-94
2023/06/06 11:42:52;;;;;;;4.82;2.28;;;;;;;;;;6284635;22;20027;-96
2023/06/06 11:45:19;;;;;;;2.78;2.08;;;;;;;;;;6283783;22;20015;-95
2023/06/06 11:47:46;;;;;;;4.35;2.20;;;;;;;;;;6310101;22;20033;-94
2023/06/06 11:50:12;;;;;;;4.88;2.28;;;;;;;;;;6284130;22;20050;-93
2023/06/06 11:52:48;;;;;;;5.40;3.05;;;;;;;;;;6310109;22;20364;-93
2023/06/06 11:55:15;;;;;;;4.63;2.65;;;;;;;;;;6285326;22;20337;-95
2023/06/06 11:57:41;;;;;;;4.20;2.15;;;;;;;;;;6309200;22;20019;-92
2023/06/06 12:00:19;;;;;;;5.55;2.20;;;;;;;;;;6308743;22;20026;-93
2023/06/06 12:02:48;;;;;;;8.20;2.58;;;;;;;;;;6308509;22;20047;-92
2023/06/06 12:05:19;;;;;;;5.18;2.70;;;;;;;;;;6309479;22;20069;-95
2023/06/06 12:07:47;;;;;;;6.32;2.60;;;;;;;;;;6309185;22;20023;-95
2023/06/06 12:10:21;;;;;;;7.65;2.40;;;;;;;;;;6283869;22;20019;-92
2023/06/06 12:12:48;;;;;;;4.45;2.38;;;;;;;;;;6308964;22;20015;-93
2023/06/06 12:15:14;;;;;;;3.35;2.38;;;;;;;;;;6257486;22;20016;-94
2023/06/06 12:17:40;;;;;;;4.82;2.22;;;;;;;;;;6283660;22;20019;-94
2023/06/06 12:20:07;;;;;;;4.28;2.75;;;;;;;;;;6285056;22;20052;-94
2023/06/06 12:22:34;;;;;;;2.80;1.88;;;;;;;;;;6309933;22;20019;-92
2023/06/06 12:25:00;;;;;;;5.88;2.60;;;;;;;;;;6282567;22;20022;-93
2023/06/06 12:27:27;;;;;;;3.67;2.42;;;;;;;;;;6256491;22;20062;-95
2023/06/06 12:29:56;;;;;;;3.05;2.17;;;;;;;;;;6282536;22;20054;-94
2023/06/06 12:32:29;;;;;;;3.50;2.67;;;;;;;;;;6282887;22;20337;-92
2023/06/06 12:35:01;;;;;;;3.28;2.33;;;;;;;;;;6282808;22;20025;-92
2023/06/06 12:37:41;;;;;;;4.80;2.45;;;;;;;;;;6282043;22;20073;-90
2023/06/06 12:40:14;;;;;;;3.65;2.47;;;;;;;;;;6308008;22;20023;-93
2023/06/06 12:42:43;;;;;;;4.65;2.15;;;;;;;;;;6307777;22;20063;-91
2023/06/06 12:45:10;;;;;;;4.68;2.00;;;;;;;;;;6281078;22;20022;-92
2023/06/06 12:47:36;;;;;;;2.83;2.30;;;;;;;;;;6281928;22;20026;-92
2023/06/06 12:50:04;;;;;;;3.53;1.88;;;;;;;;;;6306976;22;20015;-92
2023/06/06 12:52:37;;;;;;;4.57;2.80;;;;;;;;;;6308664;22;20449;-93
2023/06/06 12:55:06;;;;;;;4.45;1.90;;;;;;;;;;6287052;22;20022;-94
2023/06/06 12:57:33;;;;;;;4.90;2.88;;;;;;;;;;6310827;22;20068;-94
2023/06/06 12:59:59;;;;;;;3.70;2.60;;;;;;;;;;6284664;22;20019;-94
2023/06/06 13:02:25;;;;;;;5.13;2.55;;;;;;;;;;6284337;22;20012;-92
2023/06/06 13:04:52;;;;;;;5.97;2.78;;;;;;;;;;6284113;22;20072;-89
2023/06/06 13:07:18;;;;;;;8.15;2.58;;;;;;;;;;6309409;22;20012;-92
2023/06/06 13:09:44;;;;;;;4.47;2.05;;;;;;;;;;6309567;22;20388;-91
2023/06/06 13:12:10;;;;;;;3.90;2.10;;;;;;;;;;6309430;22;20015;-91
2023/06/06 13:14:36;;;;;;;6.07;2.40;;;;;;;;;;6283178;22;20055;-92
2023/06/06 13:17:05;;;;;;;7.18;2.25;;;;;;;;;;6310334;22;20019;-92
2023/06/06 13:19:32;;;;;;;4.47;2.72;;;;;;;;;;6283397;22;20023;-92
2023/06/06 13:21:58;;;;;;;8.18;3.20;;;;;;;;;;6309252;22;20011;-91
2023/06/06 13:24:24;;;;;;;6.03;2.83;;;;;;;;;;6309174;22;20097;-92
2023/06/06 13:26:53;;;;;;;3.78;2.30;;;;;;;;;;6283941;22;20016;-92
2023/06/06 13:29:21;;;;;;;4.45;2.03;;;;;;;;;;6284260;22;20022;-94
2023/06/06 13:31:50;;;;;;;5.10;2.45;;;;;;;;;;6285343;22;20022;-95
2023/06/06 13:34:16;;;;;;;6.78;2.50;;;;;;;;;;6285013;22;20011;-93
2023/06/06 13:36:42;;;;;;;6.10;2.90;;;;;;;;;;6310211;22;20019;-93
2023/06/06 13:39:10;;;;;;;4.53;2.45;;;;;;;;;;6284149;22;20531;-93
2023/06/06 13:41:37;;;;;;;5.70;2.90;;;;;;;;;;6284716;22;20019;-94
2023/06/06 13:44:06;;;;;;;5.78;2.58;;;;;;;;;;6283850;22;20322;-94
2023/06/06 13:46:32;;;;;;;3.72;2.22;;;;;;;;;;6284317;22;20018;-95
2023/06/06 13:49:00;;;;;;;2.85;2.30;;;;;;;;;;6284791;22;20054;-93
2023/06/06 13:51:27;;;;;;;6.43;2.83;;;;;;;;;;6311750;22;20022;-94
2023/06/06 13:53:53;;;;;;;5.22;2.60;;;;;;;;;;6285314;22;20011;-95
2023/06/06 13:56:22;;;;;;;4.70;2.38;;;;;;;;;;6310534;22;20022;-94
2023/06/06 13:58:53;;;;;;;4.85;1.90;;;;;;;;;;6259812;22;20015;-92
2023/06/06 14:01:20;;;;;;;4.75;2.80;;;;;;;;;;6310585;22;20015;-94
2023/06/06 14:03:46;;;;;;;6.18;2.50;;;;;;;;;;6284657;22;20127;-96
2023/06/06 14:06:13;;;;;;;5.18;2.72;;;;;;;;;;6291655;22;20065;-91
2023/06/06 14:08:41;;;;;;;5.38;3.13;;;;;;;;;;6288038;22;20023;-94
2023/06/06 14:11:26;;;;;;;4.03;2.40;;;;;;;;;;6311840;22;20141;-94
2023/06/06 14:13:52;;;;;;;5.10;3.03;;;;;;;;;;6310511;22;20023;-94
2023/06/06 14:16:19;;;;;;;5.05;2.72;;;;;;;;;;6282849;22;20023;-91
2023/06/06 14:18:46;;;;;;;3.95;2.53;;;;;;;;;;6283811;22;20026;-91
2023/06/06 14:23:43;;;;;;;6.97;3.03;;;;;;;;;;6311369;22;20023;-95
2023/06/06 14:26:12;;;;;;;7.85;2.95;;;;;;;;;;6285022;22;20012;-93
2023/06/06 14:28:40;;;;;;;4.05;2.50;;;;;;;;;;6284200;22;20015;-93
2023/06/06 14:31:07;;;;;;;5.00;2.70;;;;;;;;;;6309650;22;20041;-92
2023/06/06 14:33:33;;;;;;;4.32;2.60;;;;;;;;;;6309921;22;20015;-94
2023/06/06 14:36:01;;;;;;;3.72;2.90;;;;;;;;;;6284481;22;20093;-93
2023/06/06 14:38:29;;;;;;;4.25;2.92;;;;;;;;;;6310343;22;20011;-92
2023/06/06 14:40:58;;;;;;;5.32;3.00;;;;;;;;;;6310757;22;20039;-96
2023/06/06 14:43:24;;;;;;;5.43;2.88;;;;;;;;;;6310957;22;20398;-95
2023/06/06 14:45:50;;;;;;;4.53;2.40;;;;;;;;;;6285663;22;20376;-96
2023/06/06 14:48:16;;;;;;;8.05;3.38;;;;;;;;;;6310705;22;20023;-96